createdAt,value
2022-08-17T00:01:16.764Z,4.55
2022-08-17T00:03:46.542Z,4.82
2022-08-17T00:06:16.994Z,4.53
2022-08-17T00:08:46.031Z,4.40
2022-08-17T00:11:15.884Z,4.40
2022-08-17T00:13:45.466Z,4.93
2022-08-17T00:16:16.625Z,4.47
2022-08-17T00:19:06.162Z,4.57
2022-08-17T00:22:00.015Z,4.55
2022-08-17T00:24:20.214Z,4.55
2022-08-17T00:26:46.912Z,4.63
2022-08-17T00:29:19.430Z,4.25
2022-08-17T00:31:48.589Z,4.50
2022-08-17T00:34:15.195Z,4.55
2022-08-17T00:36:41.839Z,4.53
2022-08-17T00:39:08.402Z,4.53
2022-08-17T00:41:35.142Z,4.40
2022-08-17T00:44:05.100Z,4.55
2022-08-17T00:46:33.856Z,4.85
2022-08-17T00:49:02.378Z,4.45
2022-08-17T00:51:32.986Z,4.32
2022-08-17T00:54:05.140Z,4.40
2022-08-17T00:56:36.025Z,4.80
2022-08-17T00:59:05.057Z,4.78
2022-08-17T01:01:32.633Z,4.80
2022-08-17T01:04:01.202Z,4.45
2022-08-17T01:06:29.897Z,4.40
2022-08-17T01:08:58.973Z,4.75
2022-08-17T01:11:25.804Z,5.05
2022-08-17T01:13:52.685Z,4.25
2022-08-17T01:16:22.983Z,4.88
2022-08-17T01:18:53.021Z,4.07
2022-08-17T01:21:26.560Z,4.78
2022-08-17T01:23:55.552Z,5.13
2022-08-17T01:26:22.738Z,4.55
2022-08-17T01:28:54.687Z,6.00
2022-08-17T01:31:24.984Z,4.65
2022-08-17T01:33:51.673Z,4.82
2022-08-17T01:36:18.425Z,5.00
2022-08-17T01:38:45.131Z,4.65
2022-08-17T01:41:15.527Z,4.88
2022-08-17T01:43:47.379Z,5.15
2022-08-17T01:46:16.192Z,4.72
2022-08-17T01:48:42.761Z,4.20
2022-08-17T01:51:09.561Z,4.28
2022-08-17T01:53:40.331Z,5.00
2022-08-17T01:56:12.299Z,4.57
2022-08-17T01:58:42.067Z,4.90
2022-08-17T02:01:10.372Z,4.80
2022-08-17T02:03:37.823Z,4.97
2022-08-17T02:06:06.649Z,4.88
2022-08-17T02:09:03.074Z,5.00
2022-08-17T02:11:32.382Z,5.50
2022-08-17T02:14:03.383Z,4.90
2022-08-17T02:16:37.845Z,5.03
2022-08-17T02:19:06.880Z,5.10
2022-08-17T02:21:33.588Z,5.22
2022-08-17T02:24:00.519Z,4.70
2022-08-17T02:26:27.228Z,4.70
2022-08-17T02:28:53.850Z,4.72
2022-08-17T02:31:21.835Z,4.90
2022-08-17T02:34:03.295Z,4.88
2022-08-17T02:36:32.996Z,4.95
2022-08-17T02:39:00.258Z,4.60
2022-08-17T02:41:26.922Z,4.88
2022-08-17T02:43:53.470Z,4.68
2022-08-17T02:46:20.152Z,4.88
2022-08-17T02:48:48.082Z,4.88
2022-08-17T02:51:14.893Z,4.60
2022-08-17T02:53:41.460Z,4.88
2022-08-17T02:56:08.127Z,5.13
2022-08-17T02:58:36.101Z,5.07
2022-08-17T03:01:04.623Z,5.25
2022-08-17T03:03:31.560Z,5.05
2022-08-17T03:05:59.898Z,5.25
2022-08-17T03:08:26.874Z,5.20
2022-08-17T03:10:53.771Z,5.55
2022-08-17T03:13:20.433Z,5.05
2022-08-17T03:15:48.074Z,5.07
2022-08-17T03:18:19.103Z,4.65
2022-08-17T03:20:52.638Z,5.00
2022-08-17T03:23:24.116Z,5.63
2022-08-17T03:25:52.996Z,4.70
2022-08-17T03:28:20.315Z,4.68
2022-08-17T03:30:47.011Z,5.18
2022-08-17T03:33:13.777Z,4.65
2022-08-17T03:35:41.309Z,5.13
2022-08-17T03:38:09.052Z,4.63
2022-08-17T03:40:57.766Z,5.40
2022-08-17T03:43:25.227Z,4.95
2022-08-17T03:45:51.978Z,4.97
2022-08-17T03:48:20.494Z,4.95
2022-08-17T03:50:47.099Z,4.75
2022-08-17T03:53:17.332Z,5.10
2022-08-17T03:55:45.286Z,5.00
2022-08-17T03:58:11.899Z,5.00
2022-08-17T04:00:39.741Z,4.95
2022-08-17T04:03:06.512Z,5.07
2022-08-17T04:05:35.609Z,5.18
2022-08-17T04:08:02.298Z,5.22
2022-08-17T04:10:33.921Z,5.22
2022-08-17T04:13:06.499Z,5.70
2022-08-17T04:15:33.074Z,5.10
2022-08-17T04:18:00.085Z,5.35
2022-08-17T04:20:26.696Z,4.82
2022-08-17T04:22:58.075Z,4.60
2022-08-17T04:25:26.035Z,4.82
2022-08-17T04:27:52.739Z,4.82
2022-08-17T04:30:21.343Z,4.90
2022-08-17T04:33:04.467Z,4.95
2022-08-17T04:35:36.367Z,4.80
2022-08-17T04:38:02.947Z,5.55
2022-08-17T04:40:29.544Z,5.15
2022-08-17T04:43:01.205Z,4.90
2022-08-17T04:45:32.264Z,5.10
2022-08-17T04:47:59.777Z,5.05
2022-08-17T04:50:26.390Z,5.43
2022-08-17T04:52:52.990Z,4.57
2022-08-17T04:55:19.628Z,5.03
2022-08-17T04:57:46.289Z,5.18
2022-08-17T05:00:13.552Z,5.68
2022-08-17T05:02:49.925Z,4.80
2022-08-17T05:05:18.966Z,4.72
2022-08-17T05:07:45.535Z,5.03
2022-08-17T05:10:12.296Z,4.90
2022-08-17T05:12:38.882Z,4.65
2022-08-17T05:15:11.461Z,4.68
2022-08-17T05:17:38.102Z,4.85
2022-08-17T05:20:07.294Z,5.25
2022-08-17T05:22:33.912Z,5.25
2022-08-17T05:25:02.708Z,4.95
2022-08-17T05:27:35.149Z,4.80
2022-08-17T05:30:02.237Z,4.63
2022-08-17T05:32:37.869Z,4.72
2022-08-17T05:35:09.137Z,4.68
2022-08-17T05:37:35.767Z,4.68
2022-08-17T05:40:02.551Z,4.63
2022-08-17T05:42:29.187Z,4.20
2022-08-17T05:44:57.685Z,4.55
2022-08-17T05:47:26.111Z,4.68
2022-08-17T05:49:53.841Z,4.95
2022-08-17T05:52:33.287Z,5.05
2022-08-17T05:55:13.676Z,4.55
2022-08-17T05:57:54.086Z,5.10
2022-08-17T06:00:30.673Z,4.10
2022-08-17T06:03:18.667Z,4.68
2022-08-17T06:05:58.115Z,4.50
2022-08-17T06:08:34.099Z,4.68
2022-08-17T06:11:10.382Z,4.70
2022-08-17T06:13:55.927Z,4.18
2022-08-17T06:16:26.315Z,4.30
2022-08-17T06:19:05.635Z,4.22
2022-08-17T06:21:36.086Z,3.75
2022-08-17T06:24:07.189Z,4.53
2022-08-17T06:26:43.051Z,4.22
2022-08-17T06:29:20.875Z,4.13
2022-08-17T06:31:47.572Z,4.20
2022-08-17T06:34:14.243Z,4.75
2022-08-17T06:36:52.059Z,3.95
2022-08-17T06:39:34.320Z,4.97
2022-08-17T06:43:02.331Z,4.03
2022-08-17T06:45:07.146Z,4.30
2022-08-17T06:47:42.384Z,3.58
2022-08-17T06:50:17.925Z,4.30
2022-08-17T06:52:52.646Z,4.20
2022-08-17T06:55:25.182Z,4.57
2022-08-17T06:57:58.067Z,4.03
2022-08-17T07:00:29.711Z,4.00
2022-08-17T07:03:02.523Z,3.92
2022-08-17T07:05:35.411Z,3.80
2022-08-17T07:08:08.446Z,4.13
2022-08-17T07:10:42.591Z,4.40
2022-08-17T07:13:22.287Z,3.50
2022-08-17T07:15:56.414Z,3.70
2022-08-17T07:18:26.439Z,4.25
2022-08-17T07:20:58.092Z,3.47
2022-08-17T07:23:34.851Z,3.92
2022-08-17T07:26:05.800Z,3.47
2022-08-17T07:28:33.709Z,3.88
2022-08-17T07:31:00.540Z,3.33
2022-08-17T07:44:19.118Z,3.15
2022-08-17T07:46:50.438Z,3.65
2022-08-17T07:49:21.836Z,3.08
2022-08-17T07:52:47.710Z,3.17
2022-08-17T07:54:47.771Z,3.83
2022-08-17T07:57:31.447Z,3.08
2022-08-17T08:00:16.884Z,3.08
2022-08-17T08:02:46.342Z,3.80
2022-08-17T08:05:30.672Z,3.00
2022-08-17T08:08:23.834Z,3.35
2022-08-17T08:10:59.965Z,2.90
2022-08-17T08:13:28.539Z,3.30
2022-08-17T08:16:14.599Z,2.92
2022-08-17T08:18:55.327Z,3.10
2022-08-17T08:21:36.299Z,2.92
2022-08-17T08:24:23.318Z,3.10
2022-08-17T08:27:02.155Z,3.17
2022-08-17T08:29:40.255Z,3.00
2022-08-17T08:32:16.009Z,3.20
2022-08-17T08:35:02.608Z,3.00
2022-08-17T08:37:42.657Z,3.10
2022-08-17T08:40:43.126Z,3.10
2022-08-17T08:43:21.203Z,3.20
2022-08-17T08:46:01.072Z,3.22
2022-08-17T08:48:58.694Z,3.50
2022-08-17T08:51:37.638Z,3.25
2022-08-17T08:54:15.556Z,3.20
2022-08-17T08:57:19.480Z,3.10
2022-08-17T08:59:44.312Z,2.90
2022-08-17T09:02:23.881Z,3.15
2022-08-17T09:05:16.388Z,3.38
2022-08-17T09:07:51.832Z,2.88
2022-08-17T09:10:29.413Z,3.10
2022-08-17T09:13:09.820Z,4.15
2022-08-17T09:15:41.984Z,3.80
2022-08-17T09:19:01.293Z,3.20
2022-08-17T09:21:07.530Z,3.13
2022-08-17T09:23:39.016Z,3.20
2022-08-17T09:26:11.710Z,3.30
2022-08-17T09:28:41.063Z,3.20
2022-08-17T09:31:11.281Z,3.42
2022-08-17T09:33:43.159Z,2.70
2022-08-17T09:36:17.547Z,2.90
2022-08-17T09:38:55.056Z,4.10
2022-08-17T09:41:26.623Z,3.20
2022-08-17T09:44:06.401Z,2.90
2022-08-17T09:46:40.762Z,3.10
2022-08-17T09:49:14.618Z,3.05
2022-08-17T09:51:48.503Z,3.28
2022-08-17T09:54:38.587Z,5.75
2022-08-17T09:57:35.823Z,3.83
2022-08-17T10:00:14.502Z,5.53
2022-08-17T10:03:15.954Z,3.30
2022-08-17T10:08:21.817Z,7.40
2022-08-17T10:10:56.352Z,4.90
2022-08-17T10:13:35.652Z,6.20
2022-08-17T10:16:12.128Z,5.07
2022-08-17T10:18:47.563Z,5.90
2022-08-17T10:21:16.508Z,6.32
2022-08-17T10:23:47.122Z,6.18
2022-08-17T10:26:18.717Z,5.38
2022-08-17T10:28:53.772Z,5.72
2022-08-17T10:31:35.457Z,6.97
2022-08-17T10:34:32.271Z,6.35
2022-08-17T10:37:28.715Z,6.35
2022-08-17T10:40:19.257Z,6.35
2022-08-17T10:42:50.041Z,6.57
2022-08-17T10:45:19.735Z,6.80
2022-08-17T10:47:58.115Z,7.28
2022-08-17T10:50:57.278Z,7.47
2022-08-17T10:53:50.098Z,6.38
2022-08-17T10:56:43.582Z,6.45
2022-08-17T10:59:50.433Z,7.43
2022-08-17T11:02:24.404Z,7.38
2022-08-17T11:05:01.171Z,6.78
2022-08-17T11:07:44.667Z,6.70
2022-08-17T11:10:27.585Z,7.18
2022-08-17T11:13:03.856Z,7.72
2022-08-17T11:15:47.499Z,7.28
2022-08-17T11:18:28.574Z,7.03
2022-08-17T11:21:17.353Z,7.30
2022-08-17T11:23:56.610Z,7.22
2022-08-17T11:26:27.301Z,7.68
2022-08-17T11:29:08.211Z,7.28
2022-08-17T11:31:37.971Z,8.00
2022-08-17T11:34:13.450Z,7.65
2022-08-17T11:37:18.998Z,7.70
2022-08-17T11:40:00.262Z,8.18
2022-08-17T11:42:39.407Z,7.85
2022-08-17T11:45:32.366Z,8.68
2022-08-17T11:48:27.206Z,7.75
2022-08-17T11:50:59.931Z,8.35
2022-08-17T11:54:21.608Z,7.93
2022-08-17T11:56:47.983Z,8.27
2022-08-17T11:59:51.907Z,8.15
2022-08-17T12:02:45.589Z,8.27
2022-08-17T12:05:34.451Z,8.32
2022-08-17T12:08:19.051Z,8.63
2022-08-17T12:11:00.091Z,8.55
2022-08-17T12:13:38.539Z,8.43
2022-08-17T12:16:07.382Z,8.18
2022-08-17T12:18:36.745Z,8.43
2022-08-17T12:21:28.695Z,7.80
2022-08-17T12:24:00.319Z,7.60
2022-08-17T12:26:31.406Z,7.85
2022-08-17T12:29:01.141Z,7.70
2022-08-17T12:31:30.861Z,7.70
2022-08-17T12:33:58.960Z,7.95
2022-08-17T12:36:27.680Z,7.25
2022-08-17T12:38:57.571Z,8.27
2022-08-17T12:41:37.099Z,7.28
2022-08-17T12:44:06.104Z,8.10
2022-08-17T12:46:44.407Z,7.32
2022-08-17T12:49:20.123Z,8.60
2022-08-17T12:51:47.668Z,7.07
2022-08-17T12:54:29.278Z,7.60
2022-08-17T12:56:57.284Z,6.97
2022-08-17T12:59:29.803Z,6.32
2022-08-17T13:01:57.805Z,7.47
2022-08-17T13:04:26.498Z,7.28
2022-08-17T13:06:59.790Z,7.57
2022-08-17T13:09:35.290Z,8.00
2022-08-17T13:12:03.270Z,7.68
2022-08-17T13:14:33.347Z,7.85
2022-08-17T13:17:02.164Z,6.95
2022-08-17T13:19:40.687Z,7.63
2022-08-17T13:22:11.750Z,7.40
2022-08-17T13:24:48.360Z,7.00
2022-08-17T13:27:15.054Z,7.45
2022-08-17T13:29:51.270Z,8.30
2022-08-17T13:32:21.906Z,7.78
2022-08-17T13:35:14.910Z,7.80
2022-08-17T13:37:38.322Z,8.55
2022-08-17T13:40:35.507Z,7.90
2022-08-17T13:43:02.722Z,7.82
2022-08-17T13:45:43.590Z,8.73
2022-08-17T13:48:19.335Z,7.93
2022-08-17T13:51:03.211Z,8.80
2022-08-17T13:53:32.990Z,8.05
2022-08-17T13:56:02.244Z,7.60
2022-08-17T13:58:34.222Z,7.68
2022-08-17T14:01:28.621Z,7.80
2022-08-17T14:03:55.500Z,8.27
2022-08-17T14:06:51.820Z,8.38
2022-08-17T14:09:12.259Z,9.60
2022-08-17T14:11:38.860Z,7.38
2022-08-17T14:14:05.500Z,7.38
2022-08-17T14:16:32.121Z,8.73
2022-08-17T14:18:58.854Z,8.20
2022-08-17T14:21:26.818Z,7.82
2022-08-17T14:23:54.911Z,8.45
2022-08-17T14:26:21.767Z,7.97
2022-08-17T14:28:56.303Z,9.23
2022-08-17T14:31:23.630Z,8.75
2022-08-17T14:33:50.214Z,7.90
2022-08-17T14:36:16.860Z,8.90
2022-08-17T14:38:45.012Z,9.02
2022-08-17T14:41:11.761Z,9.00
2022-08-17T14:43:38.325Z,9.18
2022-08-17T14:46:05.143Z,9.43
2022-08-17T14:48:31.699Z,8.00
2022-08-17T14:50:58.459Z,8.02
2022-08-17T14:53:25.053Z,8.98
2022-08-17T14:55:53.103Z,8.93
2022-08-17T14:58:19.688Z,8.48
2022-08-17T15:00:46.430Z,7.70
2022-08-17T15:03:13.001Z,8.32
2022-08-17T15:05:40.136Z,7.85
2022-08-17T15:08:07.997Z,8.45
2022-08-17T15:10:36.121Z,7.72
2022-08-17T15:13:04.050Z,7.55
2022-08-17T15:15:31.106Z,8.07
2022-08-17T15:17:58.253Z,7.70
2022-08-17T15:20:27.705Z,7.07
2022-08-17T15:22:56.097Z,8.35
2022-08-17T15:25:24.169Z,7.70
2022-08-17T15:27:50.993Z,7.32
2022-08-17T15:30:20.173Z,6.88
2022-08-17T15:32:54.274Z,7.68
2022-08-17T15:35:27.930Z,7.35
2022-08-17T15:37:56.246Z,8.02
2022-08-17T15:40:22.807Z,7.28
2022-08-17T15:42:49.463Z,7.60
2022-08-17T15:45:16.027Z,6.97
2022-08-17T15:47:44.326Z,7.53
2022-08-17T15:50:11.049Z,8.48
2022-08-17T15:52:37.697Z,7.75
2022-08-17T15:55:06.570Z,6.85
2022-08-17T15:57:33.259Z,7.35
2022-08-17T15:59:59.900Z,6.68
2022-08-17T16:03:15.878Z,6.35
2022-08-17T16:05:24.073Z,6.22
2022-08-17T16:07:51.743Z,6.35
2022-08-17T16:10:19.437Z,6.50
2022-08-17T16:12:47.574Z,6.80
2022-08-17T16:15:15.053Z,6.35
2022-08-17T16:17:41.701Z,5.90
2022-08-17T16:20:09.283Z,6.80
2022-08-17T16:22:49.991Z,6.82
2022-08-17T16:27:45.379Z,5.35
2022-08-17T16:30:17.375Z,5.40
2022-08-17T16:32:44.927Z,5.65
2022-08-17T16:35:13.125Z,5.55
2022-08-17T16:37:39.744Z,5.53
2022-08-17T16:40:11.058Z,6.35
2022-08-17T16:42:38.846Z,5.38
2022-08-17T16:45:08.532Z,5.65
2022-08-17T16:47:35.768Z,5.40
2022-08-17T16:50:02.493Z,5.18
2022-08-17T16:52:32.398Z,5.18
2022-08-17T16:55:01.324Z,5.45
2022-08-17T16:57:29.959Z,5.15
2022-08-17T16:59:56.966Z,4.85
2022-08-17T17:02:28.716Z,5.50
2022-08-17T17:05:01.960Z,4.57
2022-08-17T17:07:44.064Z,5.07
2022-08-17T17:10:14.252Z,5.18
2022-08-17T17:13:02.870Z,5.63
2022-08-17T17:15:42.803Z,6.20
2022-08-17T17:18:12.525Z,6.35
2022-08-17T17:20:45.692Z,5.70
2022-08-17T17:23:27.883Z,6.00
2022-08-17T17:26:02.892Z,5.10
2022-08-17T17:28:37.929Z,5.88
2022-08-17T17:31:13.706Z,5.72
2022-08-17T17:33:44.496Z,5.05
2022-08-17T17:36:23.734Z,5.22
2022-08-17T17:38:54.078Z,5.60
2022-08-17T17:41:26.493Z,5.68
2022-08-17T17:44:01.892Z,5.03
2022-08-17T17:46:35.026Z,6.07
2022-08-17T17:49:01.704Z,6.07
2022-08-17T17:52:03.658Z,5.95
2022-08-17T17:54:38.082Z,6.82
2022-08-17T17:57:15.168Z,6.78
2022-08-17T17:59:55.074Z,6.32
2022-08-17T18:02:35.384Z,6.73
2022-08-17T18:05:08.531Z,6.47
2022-08-17T18:07:42.682Z,6.18
2022-08-17T18:10:29.603Z,6.60
2022-08-17T18:13:10.354Z,6.90
2022-08-17T18:15:44.879Z,7.05
2022-08-17T18:18:34.174Z,7.43
2022-08-17T18:21:03.560Z,7.35
2022-08-17T18:23:30.131Z,6.50
2022-08-17T18:25:57.438Z,6.57
2022-08-17T18:28:28.031Z,7.18
2022-08-17T18:31:15.643Z,7.30
2022-08-17T18:33:44.413Z,7.20
2022-08-17T18:36:11.930Z,6.95
2022-08-17T18:38:40.533Z,7.45
2022-08-17T18:41:18.584Z,7.20
2022-08-17T18:43:57.514Z,7.35
2022-08-17T18:46:32.913Z,7.65
2022-08-17T18:49:01.986Z,7.53
2022-08-17T18:51:40.816Z,7.82
2022-08-17T18:56:49.778Z,7.57
2022-08-17T18:59:27.291Z,8.20
2022-08-17T19:02:09.965Z,7.40
2022-08-17T19:04:41.790Z,8.25
2022-08-17T19:07:23.551Z,7.25
2022-08-17T19:09:53.964Z,7.40
2022-08-17T19:12:27.369Z,7.27
2022-08-17T19:14:56.402Z,7.60
2022-08-17T19:17:30.619Z,7.70
2022-08-17T19:20:02.192Z,7.97
2022-08-17T19:22:44.507Z,8.32
2022-08-17T19:25:16.112Z,8.45
2022-08-17T19:27:50.282Z,8.43
2022-08-17T19:30:17.684Z,8.50
2022-08-17T19:32:45.778Z,8.85
2022-08-17T19:35:17.399Z,8.20
2022-08-17T19:37:57.730Z,8.88
2022-08-17T19:44:00.770Z,9.80
2022-08-17T19:46:35.632Z,8.57
2022-08-17T19:49:13.941Z,9.85
2022-08-17T19:51:47.400Z,9.43
2022-08-17T19:54:22.149Z,9.13
2022-08-17T19:56:59.164Z,9.55
2022-08-17T19:59:44.379Z,8.80
2022-08-17T20:02:30.542Z,9.07
2022-08-17T20:05:01.571Z,10.18
2022-08-17T20:07:37.056Z,8.77
2022-08-17T20:10:08.413Z,9.02
2022-08-17T20:15:08.567Z,8.98
2022-08-17T20:17:37.519Z,8.93
2022-08-17T20:20:26.002Z,9.15
2022-08-17T20:23:02.350Z,9.27
2022-08-17T20:25:36.276Z,9.57
2022-08-17T20:28:15.195Z,10.13
2022-08-17T20:30:43.428Z,9.48
2022-08-17T20:33:24.190Z,9.43
2022-08-17T20:36:11.711Z,10.55
2022-08-17T20:38:42.510Z,9.60
2022-08-17T20:41:12.641Z,9.80
2022-08-17T20:43:49.070Z,9.60
2022-08-17T20:46:51.586Z,10.10
2022-08-17T20:49:24.718Z,9.88
2022-08-17T20:52:00.582Z,9.27
2022-08-17T20:54:42.947Z,9.80
2022-08-17T20:57:30.037Z,9.80
2022-08-17T21:00:02.778Z,10.57
2022-08-17T21:02:29.635Z,10.02
2022-08-17T21:05:07.208Z,9.80
2022-08-17T21:07:53.125Z,10.05
2022-08-17T21:10:32.019Z,11.13
2022-08-17T21:13:19.859Z,9.90
2022-08-17T21:15:51.605Z,10.52
2022-08-17T21:18:27.390Z,10.52
2022-08-17T21:21:08.655Z,10.27
2022-08-17T21:23:58.363Z,9.63
2022-08-17T21:26:32.738Z,10.48
2022-08-17T21:29:17.844Z,9.45
2022-08-17T21:32:19.252Z,12.32
2022-08-17T21:35:23.408Z,10.40
2022-08-17T21:37:53.066Z,10.48
2022-08-17T21:40:25.990Z,11.85
2022-08-17T21:42:55.382Z,11.23
2022-08-17T21:45:26.419Z,10.88
2022-08-17T21:48:09.376Z,11.15
2022-08-17T21:50:36.746Z,11.02
2022-08-17T21:53:05.041Z,11.68
2022-08-17T21:55:36.127Z,11.65
2022-08-17T21:58:13.597Z,11.00
2022-08-17T22:00:41.113Z,11.68
2022-08-17T22:03:22.834Z,11.40
2022-08-17T22:05:49.549Z,11.13
2022-08-17T22:08:20.169Z,12.38
2022-08-17T22:10:49.035Z,11.48
2022-08-17T22:13:22.331Z,11.05
2022-08-17T22:16:15.454Z,11.27
2022-08-17T22:18:54.761Z,11.68
2022-08-17T22:21:22.595Z,11.63
2022-08-17T22:24:04.201Z,11.48
2022-08-17T22:27:01.726Z,12.15
2022-08-17T22:29:53.335Z,11.82
2022-08-17T22:32:34.374Z,11.50
2022-08-17T22:35:29.049Z,11.65
2022-08-17T22:37:56.257Z,11.68
2022-08-17T22:40:28.857Z,11.00
2022-08-17T22:42:58.015Z,12.05
2022-08-17T22:45:25.877Z,11.65
2022-08-17T22:47:55.267Z,12.35
2022-08-17T22:50:24.227Z,11.75
2022-08-17T22:52:59.594Z,11.23
2022-08-17T22:55:27.680Z,11.88
2022-08-17T22:57:54.310Z,11.55
2022-08-17T23:00:31.535Z,11.60
2022-08-17T23:03:11.963Z,11.95
2022-08-17T23:05:40.846Z,11.82
2022-08-17T23:08:07.709Z,11.25
2022-08-17T23:10:34.325Z,12.48
2022-08-17T23:13:00.955Z,11.00
2022-08-17T23:15:29.048Z,12.13
2022-08-17T23:17:55.689Z,12.02
2022-08-17T23:20:22.325Z,12.40
2022-08-17T23:22:52.163Z,12.38
2022-08-17T23:25:25.587Z,12.17
2022-08-17T23:27:52.509Z,12.93
2022-08-17T23:30:19.362Z,12.63
2022-08-17T23:32:47.454Z,13.30
2022-08-17T23:35:39.650Z,12.63
2022-08-17T23:38:08.132Z,11.70
2022-08-17T23:40:34.738Z,12.60
2022-08-17T23:43:05.817Z,13.07
2022-08-17T23:45:36.558Z,12.57
2022-08-17T23:48:15.577Z,12.90
2022-08-17T23:50:56.054Z,12.75
2022-08-17T23:53:22.972Z,12.65
2022-08-17T23:56:03.709Z,12.65
2022-08-17T23:58:36.739Z,12.70
